createdAt,value
2023-04-19T00:02:10.030Z,5.93
2023-04-19T00:04:39.275Z,8.20
2023-04-19T00:07:07.639Z,6.30
2023-04-19T00:09:36.142Z,5.43
2023-04-19T00:12:05.063Z,5.50
2023-04-19T00:14:33.536Z,8.67
2023-04-19T00:17:02.148Z,6.50
2023-04-19T00:19:30.707Z,6.60
2023-04-19T00:21:59.167Z,6.77
2023-04-19T00:24:27.278Z,5.57
2023-04-19T00:26:55.470Z,5.77
2023-04-19T00:29:23.993Z,5.83
2023-04-19T00:31:53.166Z,6.33
2023-04-19T00:34:22.074Z,7.13
2023-04-19T00:37:02.213Z,6.53
2023-04-19T00:39:34.837Z,6.47
2023-04-19T00:42:05.403Z,5.43
2023-04-19T00:44:34.102Z,6.83
2023-04-19T00:47:03.086Z,6.37
2023-04-19T00:49:31.914Z,8.67
2023-04-19T00:52:00.702Z,7.40
2023-04-19T00:54:29.510Z,7.93
2023-04-19T00:56:58.464Z,6.90
2023-04-19T00:59:27.347Z,7.30
2023-04-19T01:01:56.364Z,7.80
2023-04-19T01:04:25.323Z,7.90
2023-04-19T01:06:54.045Z,8.17
2023-04-19T01:09:22.617Z,7.37
2023-04-19T01:11:51.638Z,8.13
2023-04-19T01:14:20.185Z,7.90
2023-04-19T01:16:49.114Z,9.07
2023-04-19T01:19:18.454Z,9.50
2023-04-19T01:21:47.143Z,11.03
2023-04-19T01:24:15.820Z,10.60
2023-04-19T01:26:44.934Z,8.73
2023-04-19T01:29:13.376Z,9.93
2023-04-19T01:31:41.962Z,8.33
2023-04-19T01:34:10.601Z,7.83
2023-04-19T01:36:39.042Z,7.60
2023-04-19T01:39:07.477Z,6.10
2023-04-19T01:41:37.685Z,8.13
2023-04-19T01:44:08.459Z,8.03
2023-04-19T01:46:38.924Z,7.97
2023-04-19T01:49:07.901Z,8.23
2023-04-19T01:51:36.405Z,7.47
2023-04-19T01:54:04.877Z,7.30
2023-04-19T01:56:33.952Z,9.73
2023-04-19T01:59:02.350Z,8.70
2023-04-19T02:01:30.539Z,12.47
2023-04-19T02:03:59.057Z,12.23
2023-04-19T02:06:27.933Z,8.77
2023-04-19T02:08:56.454Z,8.87
2023-04-19T02:11:25.312Z,10.63
2023-04-19T02:13:53.770Z,12.07
2023-04-19T02:16:21.851Z,10.37
2023-04-19T02:18:50.771Z,10.53
2023-04-19T02:21:19.184Z,9.47
2023-04-19T02:23:47.662Z,10.00
2023-04-19T02:26:15.790Z,8.13
2023-04-19T02:28:44.226Z,9.63
2023-04-19T02:31:12.680Z,11.80
2023-04-19T02:33:41.195Z,11.03
2023-04-19T02:36:10.169Z,12.53
2023-04-19T02:38:38.626Z,11.37
2023-04-19T02:41:06.779Z,11.47
2023-04-19T02:43:35.321Z,11.17
2023-04-19T02:46:04.291Z,13.93
2023-04-19T02:48:32.538Z,19.40
2023-04-19T02:51:01.070Z,11.70
2023-04-19T02:53:29.653Z,10.23
2023-04-19T02:56:19.664Z,11.80
2023-04-19T02:58:48.823Z,10.07
2023-04-19T03:01:16.983Z,12.37
2023-04-19T03:03:45.574Z,11.90
2023-04-19T03:06:16.908Z,13.10
2023-04-19T03:08:45.071Z,13.90
2023-04-19T03:11:14.487Z,10.63
2023-04-19T03:13:42.916Z,10.97
2023-04-19T03:16:11.966Z,11.27
2023-04-19T03:18:40.024Z,12.77
2023-04-19T03:21:09.547Z,11.00
2023-04-19T03:23:37.702Z,10.60
2023-04-19T03:26:06.321Z,11.60
2023-04-19T03:28:34.787Z,11.80
2023-04-19T03:31:02.920Z,9.87
2023-04-19T03:33:31.021Z,11.20
2023-04-19T03:36:01.673Z,11.17
2023-04-19T03:38:30.800Z,9.80
2023-04-19T03:40:58.836Z,10.37
2023-04-19T03:43:27.221Z,8.63
2023-04-19T03:45:55.651Z,9.10
2023-04-19T03:48:23.713Z,10.67
2023-04-19T03:50:52.142Z,9.97
2023-04-19T03:53:20.682Z,9.63
2023-04-19T03:55:49.071Z,10.83
2023-04-19T03:58:17.532Z,10.03
2023-04-19T04:00:46.356Z,8.50
2023-04-19T04:03:15.025Z,8.93
2023-04-19T04:05:43.632Z,8.43
2023-04-19T04:08:13.898Z,8.73
2023-04-19T04:10:42.339Z,7.33
2023-04-19T04:13:10.822Z,8.10
2023-04-19T04:15:39.312Z,6.70
2023-04-19T04:18:09.123Z,8.03
2023-04-19T04:20:39.868Z,10.43
2023-04-19T04:23:09.130Z,7.33
2023-04-19T04:25:39.313Z,6.20
2023-04-19T04:28:07.935Z,5.13
2023-04-19T04:30:36.839Z,7.57
2023-04-19T04:33:05.539Z,5.00
2023-04-19T04:35:35.278Z,7.07
2023-04-19T04:38:17.558Z,5.90
2023-04-19T04:40:56.787Z,9.80
2023-04-19T04:43:29.184Z,7.83
2023-04-19T04:45:58.172Z,4.67
2023-04-19T04:48:26.813Z,4.93
2023-04-19T04:50:55.393Z,5.60
2023-04-19T04:53:23.971Z,5.20
2023-04-19T04:55:53.659Z,6.57
2023-04-19T04:58:22.501Z,5.70
2023-04-19T05:00:51.454Z,6.30
2023-04-19T05:03:20.527Z,5.63
2023-04-19T05:05:49.051Z,5.37
2023-04-19T05:08:17.530Z,5.63
2023-04-19T05:10:46.042Z,6.47
2023-04-19T05:13:14.086Z,6.60
2023-04-19T05:15:42.563Z,6.57
2023-04-19T05:18:11.028Z,5.33
2023-04-19T05:20:39.785Z,4.07
2023-04-19T05:23:08.278Z,3.97
2023-04-19T05:25:36.452Z,5.33
2023-04-19T05:28:05.472Z,3.97
2023-04-19T05:30:34.057Z,4.20
2023-04-19T05:33:02.605Z,3.67
2023-04-19T05:35:30.857Z,4.23
2023-04-19T05:37:59.384Z,3.23
2023-04-19T05:40:28.494Z,5.23
2023-04-19T05:42:57.082Z,4.77
2023-04-19T05:45:25.706Z,4.23
2023-04-19T05:47:54.223Z,3.77
2023-04-19T05:50:22.803Z,3.13
2023-04-19T05:52:51.283Z,3.80
2023-04-19T05:55:19.893Z,4.53
2023-04-19T05:57:48.419Z,2.70
2023-04-19T06:00:17.433Z,3.20
2023-04-19T06:02:46.075Z,4.37
2023-04-19T06:05:14.824Z,4.93
2023-04-19T06:07:50.721Z,3.10
2023-04-19T06:10:25.785Z,4.27
2023-04-19T06:12:56.851Z,4.40
2023-04-19T06:15:26.031Z,5.00
2023-04-19T06:17:54.567Z,3.73
2023-04-19T06:20:23.157Z,4.63
2023-04-19T06:22:51.882Z,8.77
2023-04-19T06:25:20.761Z,2.90
2023-04-19T06:27:49.207Z,3.57
2023-04-19T06:30:18.015Z,4.03
2023-04-19T06:32:46.578Z,4.03
2023-04-19T06:35:15.328Z,4.10
2023-04-19T06:37:43.953Z,2.80
2023-04-19T06:40:12.741Z,4.03
2023-04-19T06:42:41.274Z,4.43
2023-04-19T06:45:10.047Z,7.13
2023-04-19T06:47:38.659Z,4.73
2023-04-19T06:50:07.933Z,2.77
2023-04-19T06:52:36.560Z,4.57
2023-04-19T06:55:05.311Z,4.53
2023-04-19T06:57:33.896Z,5.17
2023-04-19T07:00:02.206Z,3.30
2023-04-19T07:02:30.839Z,3.43
2023-04-19T07:04:59.065Z,4.30
2023-04-19T07:07:27.782Z,2.87
2023-04-19T07:09:56.243Z,3.70
2023-04-19T07:12:24.789Z,2.73
2023-04-19T07:14:56.431Z,2.50
2023-04-19T07:17:25.530Z,2.90
2023-04-19T07:19:54.076Z,2.93
2023-04-19T07:22:22.746Z,4.90
2023-04-19T07:24:52.243Z,3.77
2023-04-19T07:27:20.973Z,5.20
2023-04-19T07:29:49.583Z,2.47
2023-04-19T07:32:17.875Z,3.60
2023-04-19T07:34:46.551Z,3.60
2023-04-19T07:37:15.161Z,3.30
2023-04-19T07:39:43.682Z,4.37
2023-04-19T07:42:12.135Z,3.47
2023-04-19T07:44:40.708Z,4.50
2023-04-19T07:47:09.206Z,3.37
2023-04-19T07:49:38.486Z,4.33
2023-04-19T07:52:09.361Z,4.70
2023-04-19T07:54:39.311Z,5.03
2023-04-19T07:57:07.862Z,3.10
2023-04-19T07:59:36.324Z,3.17
2023-04-19T08:02:04.862Z,6.17
2023-04-19T08:04:33.237Z,5.43
2023-04-19T08:07:03.908Z,5.50
2023-04-19T08:09:32.428Z,4.23
2023-04-19T08:12:01.471Z,3.70
2023-04-19T08:14:40.007Z,3.73
2023-04-19T08:17:24.603Z,4.67
2023-04-19T08:19:56.698Z,2.90
2023-04-19T08:22:25.204Z,3.87
2023-04-19T08:24:54.029Z,5.33
2023-04-19T08:27:23.076Z,2.90
2023-04-19T08:29:51.547Z,4.40
2023-04-19T08:32:19.743Z,4.70
2023-04-19T08:34:47.902Z,5.20
2023-04-19T08:37:16.465Z,6.17
2023-04-19T08:39:44.954Z,3.77
2023-04-19T08:45:06.353Z,3.23
2023-04-19T08:47:48.199Z,3.57
2023-04-19T08:50:32.092Z,5.47
2023-04-19T08:53:20.877Z,5.57
2023-04-19T08:56:10.426Z,4.13
2023-04-19T08:58:57.887Z,4.17
2023-04-19T09:01:34.630Z,4.67
2023-04-19T09:04:31.782Z,3.57
2023-04-19T09:06:58.894Z,5.47
2023-04-19T09:12:01.551Z,4.27
2023-04-19T09:14:30.721Z,3.40
2023-04-19T09:17:18.528Z,3.97
2023-04-19T09:19:51.189Z,4.37
2023-04-19T09:22:20.032Z,4.30
2023-04-19T09:27:37.446Z,3.77
2023-04-19T09:30:12.740Z,4.00
2023-04-19T09:32:50.155Z,3.37
2023-04-19T09:35:18.783Z,3.80
2023-04-19T09:38:06.258Z,3.43
2023-04-19T09:40:35.321Z,4.77
2023-04-19T09:43:18.015Z,4.43
2023-04-19T09:45:52.903Z,7.77
2023-04-19T09:48:24.306Z,3.87
2023-04-19T09:51:02.344Z,5.20
2023-04-19T09:53:35.418Z,8.83
2023-04-19T09:56:06.177Z,8.10
2023-04-19T09:58:46.908Z,5.03
2023-04-19T10:01:20.499Z,12.73
2023-04-19T10:03:52.100Z,6.57
2023-04-19T10:08:56.092Z,5.07
2023-04-19T10:11:26.855Z,4.40
2023-04-19T10:14:01.585Z,5.83
2023-04-19T10:16:32.680Z,3.30
2023-04-19T10:19:02.932Z,5.33
2023-04-19T10:21:32.835Z,4.43
2023-04-19T10:24:01.663Z,3.57
2023-04-19T10:26:29.899Z,2.97
2023-04-19T10:28:58.726Z,5.87
2023-04-19T10:31:28.010Z,6.17
2023-04-19T10:33:57.839Z,9.53
2023-04-19T10:36:29.928Z,6.73
2023-04-19T10:38:58.406Z,5.77
2023-04-19T10:41:59.550Z,6.13
2023-04-19T10:44:28.157Z,5.57
2023-04-19T10:46:56.321Z,7.13
2023-04-19T10:49:25.199Z,4.80
2023-04-19T10:51:54.912Z,5.53
2023-04-19T10:54:32.575Z,4.77
2023-04-19T10:57:02.303Z,5.60
2023-04-19T10:59:38.026Z,4.27
2023-04-19T11:02:32.519Z,4.40
2023-04-19T11:05:02.247Z,3.40
2023-04-19T11:07:34.098Z,6.50
2023-04-19T11:10:02.566Z,4.43
2023-04-19T11:12:31.186Z,6.67
2023-04-19T11:15:00.583Z,4.13
2023-04-19T11:17:32.498Z,3.60
2023-04-19T11:20:06.917Z,5.60
2023-04-19T11:22:36.099Z,6.27
2023-04-19T11:25:21.886Z,3.53
2023-04-19T11:27:55.771Z,7.30
2023-04-19T11:30:31.777Z,4.93
2023-04-19T11:33:00.603Z,5.17
2023-04-19T11:35:30.494Z,3.80
2023-04-19T11:38:01.657Z,3.13
2023-04-19T11:40:30.267Z,5.47
2023-04-19T11:43:01.293Z,4.03
2023-04-19T11:45:34.750Z,5.80
2023-04-19T11:48:07.719Z,6.27
2023-04-19T11:50:46.715Z,4.37
2023-04-19T11:53:19.071Z,6.00
2023-04-19T11:55:48.100Z,5.60
2023-04-19T11:58:40.774Z,3.53
2023-04-19T12:01:15.950Z,4.40
2023-04-19T12:03:50.438Z,3.83
2023-04-19T12:06:24.312Z,4.73
2023-04-19T12:08:54.614Z,6.23
2023-04-19T12:11:50.118Z,3.73
2023-04-19T12:14:22.764Z,3.33
2023-04-19T12:17:14.559Z,3.93
2023-04-19T12:19:47.541Z,7.70
2023-04-19T12:22:20.364Z,7.60
2023-04-19T12:24:49.127Z,5.30
2023-04-19T12:27:19.179Z,5.27
2023-04-19T12:29:47.282Z,6.43
2023-04-19T12:32:16.297Z,3.90
2023-04-19T12:34:44.804Z,7.23
2023-04-19T12:37:13.361Z,3.67
2023-04-19T12:39:41.919Z,4.27
2023-04-19T12:42:10.423Z,8.00
2023-04-19T12:44:39.031Z,6.97
2023-04-19T12:47:07.585Z,4.43
2023-04-19T12:49:35.776Z,4.07
2023-04-19T12:52:04.337Z,5.57
2023-04-19T12:54:32.848Z,5.47
2023-04-19T12:57:03.394Z,3.50
2023-04-19T12:59:32.199Z,6.43
2023-04-19T13:02:00.680Z,6.17
2023-04-19T13:04:29.619Z,8.23
2023-04-19T13:06:58.168Z,6.97
2023-04-19T13:09:28.825Z,6.70
2023-04-19T13:11:57.870Z,4.33
2023-04-19T13:14:28.245Z,5.43
2023-04-19T13:16:56.945Z,4.03
2023-04-19T13:19:25.205Z,3.50
2023-04-19T13:21:53.781Z,4.97
2023-04-19T13:24:22.326Z,3.87
2023-04-19T13:26:50.901Z,5.83
2023-04-19T13:29:19.456Z,4.40
2023-04-19T13:31:47.732Z,5.70
2023-04-19T13:34:16.471Z,4.90
2023-04-19T13:36:44.889Z,5.90
2023-04-19T13:39:13.398Z,7.67
2023-04-19T13:41:42.021Z,4.13
2023-04-19T13:44:11.069Z,4.67
2023-04-19T13:46:39.236Z,4.43
2023-04-19T13:49:07.807Z,4.17
2023-04-19T13:51:48.881Z,6.03
2023-04-19T13:54:19.381Z,5.23
2023-04-19T13:56:51.381Z,3.97
2023-04-19T13:59:21.255Z,3.00
2023-04-19T14:01:49.881Z,3.97
2023-04-19T14:04:19.382Z,4.17
2023-04-19T14:06:49.137Z,3.50
2023-04-19T14:09:17.692Z,4.10
2023-04-19T14:11:45.909Z,4.47
2023-04-19T14:14:15.211Z,3.10
2023-04-19T14:16:43.940Z,3.80
2023-04-19T14:19:12.418Z,2.90
2023-04-19T14:21:41.177Z,7.07
2023-04-19T14:24:09.771Z,5.20
2023-04-19T14:26:38.467Z,3.43
2023-04-19T14:29:06.988Z,6.30
2023-04-19T14:31:35.610Z,7.17
2023-04-19T14:34:03.700Z,7.00
2023-04-19T14:36:31.770Z,4.30
2023-04-19T14:38:59.984Z,4.37
2023-04-19T14:41:28.460Z,4.40
2023-04-19T14:43:57.303Z,9.70
2023-04-19T14:46:25.660Z,3.47
2023-04-19T14:48:54.447Z,5.00
2023-04-19T14:51:22.521Z,6.10
2023-04-19T14:53:51.218Z,6.40
2023-04-19T14:56:20.108Z,4.03
2023-04-19T14:58:48.370Z,5.87
2023-04-19T15:01:17.033Z,5.27
2023-04-19T15:03:45.803Z,5.20
2023-04-19T15:06:14.306Z,7.20
2023-04-19T15:08:43.186Z,6.20
2023-04-19T15:11:11.827Z,11.83
2023-04-19T15:13:40.503Z,8.00
2023-04-19T15:16:09.439Z,8.57
2023-04-19T15:18:37.813Z,9.30
2023-04-19T15:21:06.626Z,7.30
2023-04-19T15:23:35.134Z,8.53
2023-04-19T15:26:03.689Z,5.47
2023-04-19T15:28:36.404Z,7.13
2023-04-19T15:31:07.364Z,7.77
2023-04-19T15:33:38.074Z,8.00
2023-04-19T15:36:06.871Z,7.70
2023-04-19T15:38:35.400Z,9.10
2023-04-19T15:41:04.124Z,6.57
2023-04-19T15:43:32.760Z,9.23
2023-04-19T15:46:01.468Z,10.03
2023-04-19T15:48:30.011Z,7.83
2023-04-19T15:50:59.068Z,6.20
2023-04-19T15:53:27.596Z,6.10
2023-04-19T15:55:56.305Z,4.57
2023-04-19T15:58:25.250Z,5.40
2023-04-19T16:00:53.727Z,7.37
2023-04-19T16:03:22.464Z,7.00
2023-04-19T16:05:51.930Z,7.00
2023-04-19T16:08:20.882Z,5.50
2023-04-19T16:10:50.466Z,5.10
2023-04-19T16:13:19.060Z,7.27
2023-04-19T16:15:47.441Z,8.57
2023-04-19T16:18:15.936Z,6.03
2023-04-19T16:20:44.594Z,6.57
2023-04-19T16:23:14.775Z,6.87
2023-04-19T16:25:43.387Z,6.00
2023-04-19T16:28:11.752Z,5.50
2023-04-19T16:30:40.304Z,7.70
2023-04-19T16:33:09.073Z,8.67
2023-04-19T16:35:37.634Z,7.13
2023-04-19T16:38:07.170Z,5.60
2023-04-19T16:40:35.820Z,5.67
2023-04-19T16:43:04.890Z,7.17
2023-04-19T16:45:33.810Z,6.10
2023-04-19T16:48:02.526Z,5.50
2023-04-19T16:50:31.113Z,6.53
2023-04-19T16:52:59.877Z,5.73
2023-04-19T16:55:28.419Z,5.93
2023-04-19T16:57:57.063Z,7.03
2023-04-19T17:00:25.654Z,7.30
2023-04-19T17:02:54.365Z,6.13
2023-04-19T17:05:22.540Z,4.80
2023-04-19T17:07:52.927Z,9.03
2023-04-19T17:10:22.546Z,11.83
2023-04-19T17:12:50.796Z,7.17
2023-04-19T17:15:20.611Z,5.60
2023-04-19T17:17:48.735Z,9.50
2023-04-19T17:20:17.262Z,8.30
2023-04-19T17:22:45.821Z,5.53
2023-04-19T17:25:14.399Z,11.57
2023-04-19T17:27:42.943Z,6.73
2023-04-19T17:30:11.693Z,8.90
2023-04-19T17:32:40.341Z,8.33
2023-04-19T17:35:09.590Z,7.87
2023-04-19T17:37:38.298Z,6.77
2023-04-19T17:40:07.553Z,5.13
2023-04-19T17:43:05.754Z,7.13
2023-04-19T17:46:17.935Z,5.77
2023-04-19T17:48:49.905Z,7.30
2023-04-19T17:51:18.469Z,6.27
2023-04-19T17:53:46.982Z,9.43
2023-04-19T17:56:18.208Z,6.13
2023-04-19T17:58:49.619Z,7.90
2023-04-19T18:01:20.927Z,5.97
2023-04-19T18:03:52.343Z,6.67
2023-04-19T18:06:29.298Z,12.03
2023-04-19T18:09:03.849Z,8.40
2023-04-19T18:11:35.732Z,6.93
2023-04-19T18:16:51.617Z,6.63
2023-04-19T18:19:23.988Z,8.00
2023-04-19T18:21:54.460Z,5.50
2023-04-19T18:24:25.485Z,5.73
2023-04-19T18:26:54.475Z,7.03
2023-04-19T18:29:24.310Z,8.30
2023-04-19T18:31:54.093Z,7.43
2023-04-19T18:34:22.819Z,13.20
2023-04-19T18:36:51.076Z,8.33
2023-04-19T18:39:19.617Z,6.73
2023-04-19T18:41:48.515Z,7.73
2023-04-19T18:44:34.643Z,7.37
2023-04-19T18:47:06.060Z,7.67
2023-04-19T18:49:34.991Z,7.17
2023-04-19T18:52:03.571Z,8.37
2023-04-19T18:54:32.186Z,7.87
2023-04-19T18:59:34.601Z,6.60
2023-04-19T19:02:02.938Z,8.40
2023-04-19T19:04:46.803Z,5.90
2023-04-19T19:09:57.114Z,5.70
2023-04-19T19:12:26.370Z,7.00
2023-04-19T19:14:55.376Z,8.33
2023-04-19T19:17:28.216Z,4.90
2023-04-19T19:19:56.570Z,4.20
2023-04-19T19:22:28.857Z,4.17
2023-04-19T19:24:57.787Z,3.50
2023-04-19T19:27:26.421Z,4.70
2023-04-19T19:29:54.599Z,3.80
2023-04-19T19:32:23.097Z,3.30
2023-04-19T19:34:56.707Z,4.47
2023-04-19T19:37:29.044Z,2.90
2023-04-19T19:39:57.590Z,3.50
2023-04-19T19:42:26.398Z,3.27
2023-04-19T19:44:56.282Z,3.47
2023-04-19T19:47:27.609Z,3.73
2023-04-19T19:50:45.720Z,3.67
2023-04-19T19:52:44.875Z,4.37
2023-04-19T19:55:13.926Z,3.43
2023-04-19T20:05:20.046Z,4.40
2023-04-19T20:08:01.347Z,4.40
2023-04-19T20:10:31.388Z,5.87
2023-04-19T20:13:01.647Z,4.40
2023-04-19T20:15:31.062Z,5.73
2023-04-19T20:17:59.620Z,4.77
2023-04-19T20:20:28.373Z,4.53
2023-04-19T20:22:56.586Z,6.93
2023-04-19T20:25:25.232Z,6.60
2023-04-19T20:27:54.293Z,5.60
2023-04-19T20:30:22.881Z,5.37
2023-04-19T20:32:51.495Z,4.30
2023-04-19T20:35:20.271Z,3.57
2023-04-19T20:37:50.905Z,3.43
2023-04-19T20:40:19.464Z,3.30
2023-04-19T20:42:48.057Z,4.03
2023-04-19T20:45:16.763Z,2.87
2023-04-19T20:47:45.017Z,3.40
2023-04-19T20:50:13.576Z,3.60
2023-04-19T20:52:42.242Z,4.10
2023-04-19T20:55:11.218Z,3.10
2023-04-19T20:57:39.731Z,3.80
2023-04-19T21:00:09.850Z,3.77
2023-04-19T21:02:38.836Z,4.40
2023-04-19T21:05:07.518Z,3.97
2023-04-19T21:07:36.012Z,4.17
2023-04-19T21:10:04.680Z,3.67
2023-04-19T21:12:33.303Z,4.27
2023-04-19T21:15:04.721Z,4.70
2023-04-19T21:17:33.393Z,4.87
2023-04-19T21:20:03.141Z,4.07
2023-04-19T21:22:31.903Z,4.43
2023-04-19T21:25:00.552Z,4.50
2023-04-19T21:27:30.274Z,4.27
2023-04-19T21:29:58.833Z,4.00
2023-04-19T21:32:28.225Z,5.60
2023-04-19T21:34:57.010Z,4.53
2023-04-19T21:37:25.505Z,4.10
2023-04-19T21:39:54.042Z,4.93
2023-04-19T21:42:22.675Z,4.20
2023-04-19T21:44:51.188Z,4.63
2023-04-19T21:47:19.773Z,4.70
2023-04-19T21:49:48.376Z,4.33
2023-04-19T21:52:16.925Z,4.77
2023-04-19T21:54:48.488Z,4.87
2023-04-19T21:57:17.639Z,5.87
2023-04-19T21:59:46.159Z,5.40
2023-04-19T22:02:14.781Z,5.20
2023-04-19T22:04:44.951Z,5.50
2023-04-19T22:07:13.627Z,5.50
2023-04-19T22:09:42.162Z,5.77
2023-04-19T22:12:11.676Z,6.83
2023-04-19T22:14:40.870Z,8.23
2023-04-19T22:17:10.150Z,6.77
2023-04-19T22:19:39.462Z,6.30
2023-04-19T22:22:07.966Z,6.30
2023-04-19T22:24:43.998Z,6.37
2023-04-19T22:27:22.254Z,6.17
2023-04-19T22:29:50.804Z,7.53
2023-04-19T22:32:19.442Z,6.67
2023-04-19T22:34:48.049Z,6.13
2023-04-19T22:37:16.644Z,6.50
2023-04-19T22:39:45.135Z,6.93
2023-04-19T22:42:13.713Z,7.20
2023-04-19T22:44:42.175Z,7.97
2023-04-19T22:47:11.885Z,7.63
2023-04-19T22:49:43.087Z,7.70
2023-04-19T22:52:12.814Z,8.63
2023-04-19T22:54:41.665Z,8.13
2023-04-19T22:57:11.207Z,8.80
2023-04-19T22:59:39.715Z,8.27
2023-04-19T23:02:08.255Z,9.63
2023-04-19T23:04:38.025Z,8.30
2023-04-19T23:07:07.203Z,9.00
2023-04-19T23:09:39.038Z,9.50
2023-04-19T23:12:08.529Z,9.97
2023-04-19T23:14:38.663Z,9.33
2023-04-19T23:17:07.390Z,9.23
2023-04-19T23:19:37.850Z,8.33
2023-04-19T23:22:06.669Z,9.93
2023-04-19T23:24:36.157Z,7.80
2023-04-19T23:27:05.090Z,10.50
2023-04-19T23:29:33.565Z,11.07
2023-04-19T23:32:02.907Z,8.27
2023-04-19T23:34:31.290Z,9.37
2023-04-19T23:36:59.868Z,9.10
2023-04-19T23:39:28.433Z,8.67
2023-04-19T23:41:58.014Z,9.07
2023-04-19T23:44:27.954Z,11.20
2023-04-19T23:46:56.556Z,10.27
2023-04-19T23:49:25.308Z,8.73
2023-04-19T23:51:54.028Z,9.67
2023-04-19T23:54:25.802Z,8.27
2023-04-19T23:56:55.066Z,9.03
2023-04-19T23:59:26.958Z,10.43
